Time;durP1;ratioP1;P1;durP2;ratioP2;P2;SDS_P1;SDS_P2;PMS_P1;PMS_P2;Temp;Humidity;BMP_temperature;BMP_pressure;BME280_temperature;BME280_humidity;BME280_pressure;Samples;Min_cycle;Max_cycle;Signal;HPM_P1;HPM_P2
2022/06/07 00:00:34;;;;;;;2.22;0.73;;;;;;;;;;4999880;28;20110;-61
2022/06/07 00:03:01;;;;;;;4.55;1.05;;;;;;;;;;5001379;28;20042;-59
2022/06/07 00:05:28;;;;;;;3.90;0.88;;;;;;;;;;5000531;28;20107;-60
2022/06/07 00:07:55;;;;;;;3.17;0.90;;;;;;;;;;4999837;28;20108;-60
2022/06/07 00:10:22;;;;;;;5.30;1.13;;;;;;;;;;5000870;28;20463;-60
2022/06/07 00:12:49;;;;;;;2.47;0.90;;;;;;;;;;5000175;28;22236;-60
2022/06/07 00:15:16;;;;;;;2.30;0.75;;;;;;;;;;4999818;28;20116;-60
2022/06/07 00:17:42;;;;;;;3.22;1.23;;;;;;;;;;4999009;28;20045;-60
2022/06/07 00:20:09;;;;;;;3.38;1.00;;;;;;;;;;5000019;28;20038;-60
2022/06/07 00:22:36;;;;;;;3.08;0.73;;;;;;;;;;4999550;28;20057;-58
2022/06/07 00:25:04;;;;;;;2.70;1.00;;;;;;;;;;5001550;28;20302;-60
2022/06/07 00:27:31;;;;;;;3.03;1.00;;;;;;;;;;5000072;28;20140;-60
2022/06/07 00:29:57;;;;;;;2.70;0.98;;;;;;;;;;5001947;28;20041;-56
2022/06/07 00:32:24;;;;;;;2.67;0.90;;;;;;;;;;5001143;28;20045;-60
2022/06/07 00:34:51;;;;;;;3.08;1.05;;;;;;;;;;5000548;28;20061;-61
2022/06/07 00:37:20;;;;;;;3.88;1.25;;;;;;;;;;5000696;28;20230;-60
2022/06/07 00:39:47;;;;;;;4.10;1.15;;;;;;;;;;4999665;28;20469;-60
2022/06/07 00:42:13;;;;;;;2.22;0.93;;;;;;;;;;4998822;28;20041;-60
2022/06/07 00:44:45;;;;;;;2.80;1.00;;;;;;;;;;4998758;28;20512;-61
2022/06/07 00:47:15;;;;;;;2.97;0.95;;;;;;;;;;4997349;28;20046;-60
2022/06/07 00:49:45;;;;;;;3.13;1.00;;;;;;;;;;4995596;28;20509;-61
2022/06/07 00:52:11;;;;;;;2.53;0.80;;;;;;;;;;4998361;28;20045;-60
2022/06/07 00:54:38;;;;;;;2.63;0.90;;;;;;;;;;4996594;28;20498;-60
2022/06/07 00:57:05;;;;;;;3.38;0.90;;;;;;;;;;4997618;28;20050;-60
2022/06/07 00:59:32;;;;;;;2.25;0.80;;;;;;;;;;4997237;28;20157;-59
2022/06/07 01:01:59;;;;;;;2.70;0.88;;;;;;;;;;4997650;28;20103;-59
2022/06/07 01:04:27;;;;;;;2.90;0.85;;;;;;;;;;4998546;28;20042;-59
2022/06/07 01:12:27;;;;;;;4.95;0.88;;;;;;;;;;4997358;28;20067;-60
2022/06/07 01:14:53;;;;;;;3.30;1.05;;;;;;;;;;4999045;28;20037;-60
2022/06/07 01:17:20;;;;;;;6.05;1.10;;;;;;;;;;4998920;28;20109;-60
2022/06/07 01:19:47;;;;;;;2.30;0.80;;;;;;;;;;4999326;28;20041;-60
2022/06/07 01:22:14;;;;;;;2.17;0.60;;;;;;;;;;4998976;28;20041;-60
2022/06/07 01:24:41;;;;;;;2.15;0.80;;;;;;;;;;4998923;28;20149;-60
2022/06/07 01:27:08;;;;;;;3.10;0.95;;;;;;;;;;4998968;28;20212;-61
2022/06/07 01:29:36;;;;;;;2.40;0.73;;;;;;;;;;4998901;28;20038;-60
2022/06/07 01:32:02;;;;;;;2.72;0.80;;;;;;;;;;5001287;28;20061;-60
2022/06/07 01:34:29;;;;;;;3.17;0.68;;;;;;;;;;4998566;28;20196;-60
2022/06/07 01:36:57;;;;;;;2.28;0.70;;;;;;;;;;4999247;28;20080;-62
2022/06/07 01:42:09;;;;;;;2.45;0.80;;;;;;;;;;5000288;28;20552;-60
2022/06/07 01:44:41;;;;;;;3.08;0.82;;;;;;;;;;4998759;28;20045;-59
2022/06/07 01:47:10;;;;;;;2.67;0.88;;;;;;;;;;4999070;28;20041;-60
2022/06/07 01:49:37;;;;;;;3.47;0.80;;;;;;;;;;4999456;28;20379;-60
2022/06/07 01:52:04;;;;;;;3.10;0.80;;;;;;;;;;5001025;28;20065;-60
2022/06/07 01:54:31;;;;;;;2.42;0.70;;;;;;;;;;5001663;28;20049;-60
2022/06/07 01:56:57;;;;;;;2.50;0.70;;;;;;;;;;4999693;28;20045;-59
2022/06/07 01:59:24;;;;;;;2.92;0.85;;;;;;;;;;4999239;28;20045;-58
2022/06/07 02:01:52;;;;;;;2.60;0.90;;;;;;;;;;4998155;28;20042;-60
2022/06/07 02:04:21;;;;;;;2.10;0.70;;;;;;;;;;4997640;28;20042;-60
2022/06/07 02:06:49;;;;;;;2.50;0.90;;;;;;;;;;4996901;28;20058;-60
2022/06/07 02:09:17;;;;;;;2.50;0.80;;;;;;;;;;4996529;28;20042;-60
2022/06/07 02:11:44;;;;;;;2.45;0.80;;;;;;;;;;4996631;28;20038;-60
2022/06/07 02:14:10;;;;;;;2.33;0.70;;;;;;;;;;4997828;28;20064;-60
2022/06/07 02:16:37;;;;;;;2.28;0.65;;;;;;;;;;4997588;28;20632;-60
2022/06/07 02:19:04;;;;;;;2.90;0.77;;;;;;;;;;4998867;28;20088;-60
2022/06/07 02:21:31;;;;;;;3.40;0.98;;;;;;;;;;4998706;28;20034;-60
2022/06/07 02:23:58;;;;;;;3.03;1.00;;;;;;;;;;5002145;28;20042;-60
2022/06/07 02:26:29;;;;;;;2.17;0.70;;;;;;;;;;5001367;28;20588;-60
2022/06/07 02:29:18;;;;;;;3.35;1.05;;;;;;;;;;5003383;28;20044;-59
2022/06/07 02:31:47;;;;;;;3.33;0.80;;;;;;;;;;5004081;28;20049;-60
2022/06/07 02:34:15;;;;;;;3.05;0.90;;;;;;;;;;5002996;28;20066;-61
2022/06/07 02:36:42;;;;;;;1.50;0.60;;;;;;;;;;5001565;28;20049;-59
2022/06/07 02:39:08;;;;;;;2.47;0.80;;;;;;;;;;5001758;28;20641;-61
2022/06/07 02:41:35;;;;;;;2.60;0.77;;;;;;;;;;5000452;28;20164;-61
2022/06/07 02:44:02;;;;;;;2.75;0.90;;;;;;;;;;5000249;28;20414;-61
2022/06/07 02:46:29;;;;;;;3.15;0.93;;;;;;;;;;5000210;28;20129;-60
2022/06/07 02:48:55;;;;;;;2.60;0.80;;;;;;;;;;5002330;28;20049;-58
2022/06/07 02:51:22;;;;;;;2.55;0.82;;;;;;;;;;5001418;28;20042;-61
2022/06/07 02:53:49;;;;;;;2.40;0.80;;;;;;;;;;5003489;28;20061;-59
2022/06/07 02:56:16;;;;;;;3.00;0.90;;;;;;;;;;5002418;28;20052;-60
2022/06/07 02:58:42;;;;;;;2.67;0.90;;;;;;;;;;5005008;28;20095;-61
2022/06/07 03:01:09;;;;;;;3.22;0.70;;;;;;;;;;5001657;28;20049;-58
2022/06/07 03:03:36;;;;;;;2.58;0.90;;;;;;;;;;5002584;28;20097;-61
2022/06/07 03:06:02;;;;;;;3.88;0.90;;;;;;;;;;5006398;28;20933;-58
2022/06/07 03:08:30;;;;;;;2.55;0.85;;;;;;;;;;5003862;28;20042;-61
2022/06/07 03:10:57;;;;;;;3.17;1.00;;;;;;;;;;5000900;28;20042;-61
2022/06/07 03:13:24;;;;;;;2.88;1.00;;;;;;;;;;5000126;28;20516;-60
2022/06/07 03:15:52;;;;;;;4.85;1.10;;;;;;;;;;5002216;28;20099;-61
2022/06/07 03:18:19;;;;;;;3.28;1.13;;;;;;;;;;4999426;28;20053;-61
2022/06/07 03:20:49;;;;;;;3.05;1.08;;;;;;;;;;5002727;28;20054;-60
2022/06/07 03:23:16;;;;;;;2.63;1.00;;;;;;;;;;5003240;28;20184;-61
2022/06/07 03:25:43;;;;;;;2.78;0.93;;;;;;;;;;4998416;28;20133;-62
2022/06/07 03:28:10;;;;;;;2.92;1.13;;;;;;;;;;5000729;28;20061;-59
2022/06/07 03:30:38;;;;;;;2.60;1.00;;;;;;;;;;4998228;28;20045;-60
2022/06/07 03:33:05;;;;;;;3.08;1.10;;;;;;;;;;5012232;28;20473;-58
2022/06/07 03:35:32;;;;;;;2.58;0.90;;;;;;;;;;5001406;28;20594;-60
2022/06/07 03:37:58;;;;;;;2.63;0.90;;;;;;;;;;5002453;28;20036;-65
2022/06/07 03:40:43;;;;;;;3.55;1.13;;;;;;;;;;5002802;28;20029;-61
2022/06/07 03:43:10;;;;;;;2.50;0.85;;;;;;;;;;5002481;28;20038;-61
2022/06/07 03:45:37;;;;;;;2.38;1.00;;;;;;;;;;4998372;28;20562;-60
2022/06/07 03:48:03;;;;;;;2.88;1.05;;;;;;;;;;4997434;28;20030;-60
2022/06/07 03:50:30;;;;;;;2.95;1.02;;;;;;;;;;5000235;28;20049;-59
2022/06/07 03:52:57;;;;;;;3.65;1.00;;;;;;;;;;5000378;28;20046;-58
2022/06/07 03:55:24;;;;;;;3.63;1.20;;;;;;;;;;5002614;28;20077;-60
2022/06/07 03:57:51;;;;;;;4.00;1.10;;;;;;;;;;5001285;28;20726;-61
2022/06/07 04:00:17;;;;;;;2.90;1.10;;;;;;;;;;5002094;28;20050;-59
2022/06/07 04:02:44;;;;;;;2.70;1.00;;;;;;;;;;5000486;28;20116;-60
2022/06/07 04:05:11;;;;;;;2.80;1.00;;;;;;;;;;5002543;28;20037;-60
2022/06/07 04:10:23;;;;;;;2.60;1.00;;;;;;;;;;4999564;28;20057;-60
2022/06/07 04:12:49;;;;;;;2.97;1.02;;;;;;;;;;5001464;28;20037;-60
2022/06/07 04:15:16;;;;;;;3.70;1.30;;;;;;;;;;5000619;28;20133;-59
2022/06/07 04:17:43;;;;;;;3.90;1.02;;;;;;;;;;4998752;28;20125;-59
2022/06/07 04:20:10;;;;;;;3.08;1.17;;;;;;;;;;5001146;28;20092;-58
2022/06/07 04:22:37;;;;;;;3.22;1.30;;;;;;;;;;4998522;28;20072;-57
2022/06/07 04:25:04;;;;;;;3.10;1.10;;;;;;;;;;5000966;28;20041;-58
2022/06/07 04:27:30;;;;;;;3.42;1.25;;;;;;;;;;4997270;28;20046;-59
2022/06/07 04:29:57;;;;;;;3.20;1.20;;;;;;;;;;5028322;28;20124;-58
2022/06/07 04:32:23;;;;;;;3.72;1.40;;;;;;;;;;4997291;28;20123;-58
2022/06/07 04:34:50;;;;;;;4.35;1.52;;;;;;;;;;4995803;28;20557;-59
2022/06/07 04:37:19;;;;;;;3.15;1.20;;;;;;;;;;4995720;28;20124;-60
2022/06/07 04:39:46;;;;;;;4.13;1.50;;;;;;;;;;4995682;28;20124;-59
2022/06/07 04:42:12;;;;;;;3.55;1.60;;;;;;;;;;4998651;28;20482;-60
2022/06/07 04:44:39;;;;;;;4.22;1.65;;;;;;;;;;4999694;28;20038;-57
2022/06/07 04:47:05;;;;;;;4.10;1.48;;;;;;;;;;4998843;28;20069;-59
2022/06/07 04:49:33;;;;;;;3.75;1.30;;;;;;;;;;4999058;28;20042;-59
2022/06/07 04:52:00;;;;;;;3.22;1.55;;;;;;;;;;4999249;28;20074;-59
2022/06/07 04:54:26;;;;;;;4.18;1.40;;;;;;;;;;4999338;28;20123;-59
2022/06/07 04:56:55;;;;;;;3.60;1.48;;;;;;;;;;5000124;28;20039;-59
2022/06/07 04:59:21;;;;;;;4.03;1.70;;;;;;;;;;4998158;28;20048;-58
2022/06/07 05:01:48;;;;;;;3.40;1.48;;;;;;;;;;4997169;28;20510;-58
2022/06/07 05:04:15;;;;;;;5.68;1.73;;;;;;;;;;4999084;28;20156;-59
2022/06/07 05:06:43;;;;;;;3.45;1.45;;;;;;;;;;5029445;28;20045;-59
2022/06/07 05:09:29;;;;;;;3.95;1.48;;;;;;;;;;4998124;28;20046;-59
2022/06/07 05:11:55;;;;;;;4.97;1.60;;;;;;;;;;4997954;28;20046;-57
2022/06/07 05:14:23;;;;;;;5.38;1.75;;;;;;;;;;4997661;28;20132;-59
2022/06/07 05:16:50;;;;;;;4.50;1.55;;;;;;;;;;4998288;28;20120;-58
2022/06/07 05:19:17;;;;;;;4.53;1.60;;;;;;;;;;4998683;28;20125;-58
2022/06/07 05:21:45;;;;;;;3.65;1.52;;;;;;;;;;4996218;28;20073;-59
2022/06/07 05:24:11;;;;;;;4.82;1.50;;;;;;;;;;4996845;28;20631;-58
2022/06/07 05:26:42;;;;;;;5.03;1.67;;;;;;;;;;4997712;28;20046;-59
2022/06/07 05:29:16;;;;;;;4.50;1.77;;;;;;;;;;5000434;28;21255;-59
2022/06/07 05:31:42;;;;;;;;;;;;;;;;;;4999208;28;20050;-59
2022/06/07 05:34:09;;;;;;;3.70;1.50;;;;;;;;;;4999093;28;19923;-59
2022/06/07 05:36:35;;;;;;;5.07;1.60;;;;;;;;;;4997057;28;20054;-59
2022/06/07 05:39:03;;;;;;;3.80;1.35;;;;;;;;;;4999565;28;20604;-59
2022/06/07 05:41:32;;;;;;;3.28;1.38;;;;;;;;;;4998759;28;20038;-59
2022/06/07 05:43:59;;;;;;;4.03;1.70;;;;;;;;;;4999709;28;20043;-59
2022/06/07 05:46:26;;;;;;;3.60;1.58;;;;;;;;;;4998440;28;20073;-58
2022/06/07 05:48:52;;;;;;;4.40;1.80;;;;;;;;;;4999740;28;20667;-59
2022/06/07 05:51:20;;;;;;;3.42;1.38;;;;;;;;;;4999355;28;20170;-59
2022/06/07 05:53:47;;;;;;;3.20;1.33;;;;;;;;;;4997292;28;20041;-59
2022/06/07 05:56:15;;;;;;;3.22;1.25;;;;;;;;;;5000219;28;20042;-59
2022/06/07 05:58:41;;;;;;;3.15;1.30;;;;;;;;;;5000070;28;20044;-63
2022/06/07 06:01:17;;;;;;;3.90;1.30;;;;;;;;;;5000083;28;20049;-58
2022/06/07 06:03:44;;;;;;;3.40;1.35;;;;;;;;;;4999604;28;20053;-58
2022/06/07 06:06:12;;;;;;;2.75;1.13;;;;;;;;;;4998879;28;20034;-58
2022/06/07 06:11:25;;;;;;;3.28;1.20;;;;;;;;;;5001346;28;20089;-58
2022/06/07 06:13:51;;;;;;;3.50;1.20;;;;;;;;;;5003568;28;20037;-58
2022/06/07 06:16:19;;;;;;;3.05;1.38;;;;;;;;;;5001805;28;20050;-58
2022/06/07 06:18:47;;;;;;;3.97;1.23;;;;;;;;;;5000972;28;20040;-59
2022/06/07 06:21:14;;;;;;;4.10;1.50;;;;;;;;;;5000368;28;20132;-58
2022/06/07 06:23:41;;;;;;;3.63;1.30;;;;;;;;;;4998282;28;20814;-62
2022/06/07 06:26:08;;;;;;;5.47;1.60;;;;;;;;;;5000620;28;20161;-59
2022/06/07 06:28:36;;;;;;;4.05;1.40;;;;;;;;;;5000495;28;20486;-59
2022/06/07 06:31:05;;;;;;;2.67;1.08;;;;;;;;;;5000362;28;20045;-58
2022/06/07 06:33:31;;;;;;;5.22;1.20;;;;;;;;;;4998968;28;20048;-59
2022/06/07 06:35:58;;;;;;;3.30;1.40;;;;;;;;;;4999759;28;20045;-58
2022/06/07 06:38:25;;;;;;;4.00;1.35;;;;;;;;;;5001278;28;20034;-58
2022/06/07 06:40:51;;;;;;;3.30;1.35;;;;;;;;;;5000372;28;20080;-58
2022/06/07 06:43:20;;;;;;;2.67;1.15;;;;;;;;;;5001411;28;20485;-58
2022/06/07 06:45:46;;;;;;;2.70;1.23;;;;;;;;;;5000842;28;20054;-57
2022/06/07 06:48:13;;;;;;;4.75;1.40;;;;;;;;;;5000787;28;20069;-59
2022/06/07 06:50:40;;;;;;;3.10;1.30;;;;;;;;;;5001335;28;20042;-58
2022/06/07 06:53:07;;;;;;;3.97;1.17;;;;;;;;;;5000907;28;20387;-57
2022/06/07 06:55:34;;;;;;;3.40;1.20;;;;;;;;;;5001326;28;20040;-58
2022/06/07 06:58:00;;;;;;;2.70;1.00;;;;;;;;;;5000952;28;20870;-58
2022/06/07 07:00:27;;;;;;;2.60;1.02;;;;;;;;;;5000257;28;20116;-57
2022/06/07 07:02:54;;;;;;;3.33;1.40;;;;;;;;;;5001661;28;20581;-58
2022/06/07 07:05:21;;;;;;;3.97;2.30;;;;;;;;;;5002418;28;20423;-58
2022/06/07 07:07:48;;;;;;;4.72;2.70;;;;;;;;;;4999450;28;20129;-58
2022/06/07 07:10:15;;;;;;;4.63;2.78;;;;;;;;;;5002042;28;20042;-58
2022/06/07 07:12:41;;;;;;;4.63;3.00;;;;;;;;;;5031432;28;20050;-57
2022/06/07 07:15:13;;;;;;;4.78;2.90;;;;;;;;;;5000892;28;20034;-58
2022/06/07 07:17:39;;;;;;;5.80;3.40;;;;;;;;;;4999661;28;20092;-59
2022/06/07 07:20:07;;;;;;;6.63;3.90;;;;;;;;;;5000201;28;20093;-57
2022/06/07 07:22:35;;;;;;;5.22;3.38;;;;;;;;;;5031006;28;20065;-58
2022/06/07 07:25:02;;;;;;;5.43;3.10;;;;;;;;;;4999908;28;20034;-58
2022/06/07 07:27:29;;;;;;;4.93;3.03;;;;;;;;;;4999977;28;20597;-57
2022/06/07 07:29:56;;;;;;;5.32;3.00;;;;;;;;;;4999761;28;20824;-57
2022/06/07 07:32:22;;;;;;;5.10;3.08;;;;;;;;;;4999441;28;20057;-58
2022/06/07 07:34:49;;;;;;;6.30;3.72;;;;;;;;;;5000306;28;20045;-57
2022/06/07 07:37:17;;;;;;;6.47;3.90;;;;;;;;;;4996938;28;20042;-57
2022/06/07 07:39:44;;;;;;;6.25;3.85;;;;;;;;;;4997165;28;20088;-57
2022/06/07 07:42:10;;;;;;;6.47;4.28;;;;;;;;;;5030113;28;20038;-58
2022/06/07 07:44:38;;;;;;;5.85;3.40;;;;;;;;;;4998652;28;20054;-58
2022/06/07 07:47:04;;;;;;;6.88;3.85;;;;;;;;;;4998217;28;20057;-57
2022/06/07 07:49:32;;;;;;;5.75;3.70;;;;;;;;;;5001533;28;20038;-57
2022/06/07 07:51:59;;;;;;;6.28;4.03;;;;;;;;;;5000680;28;20975;-58
2022/06/07 07:54:26;;;;;;;6.45;4.15;;;;;;;;;;5000002;28;20503;-57
2022/06/07 07:56:55;;;;;;;6.03;4.10;;;;;;;;;;5000679;28;20046;-57
2022/06/07 07:59:22;;;;;;;6.78;4.47;;;;;;;;;;4998969;28;20046;-57
2022/06/07 08:01:49;;;;;;;6.70;4.20;;;;;;;;;;4998960;28;20149;-57
2022/06/07 08:04:16;;;;;;;6.38;4.10;;;;;;;;;;5000354;28;20461;-57
2022/06/07 08:06:43;;;;;;;6.00;3.85;;;;;;;;;;4998939;28;20144;-57
2022/06/07 08:09:10;;;;;;;5.50;3.47;;;;;;;;;;5000369;28;20569;-58
2022/06/07 08:11:38;;;;;;;6.85;4.15;;;;;;;;;;4999893;28;20136;-58
2022/06/07 08:14:06;;;;;;;5.95;3.30;;;;;;;;;;5000077;28;20034;-57
2022/06/07 08:16:33;;;;;;;6.32;3.88;;;;;;;;;;4998117;28;20396;-58
2022/06/07 08:19:03;;;;;;;6.47;4.25;;;;;;;;;;5000026;28;20049;-58
2022/06/07 08:21:30;;;;;;;6.22;3.92;;;;;;;;;;5012532;28;20934;-58
2022/06/07 08:24:01;;;;;;;6.25;4.28;;;;;;;;;;4998579;28;20840;-55
2022/06/07 08:26:30;;;;;;;8.10;4.00;;;;;;;;;;4999397;28;20051;-58
2022/06/07 08:28:57;;;;;;;5.80;3.60;;;;;;;;;;5017705;28;20547;-57
2022/06/07 08:31:25;;;;;;;6.53;4.47;;;;;;;;;;5005453;28;20054;-58
2022/06/07 08:39:25;;;;;;;8.52;5.70;;;;;;;;;;4998907;28;20951;-58
2022/06/07 08:41:53;;;;;;;7.70;5.05;;;;;;;;;;4998817;28;20045;-57
2022/06/07 08:44:29;;;;;;;8.02;4.70;;;;;;;;;;4997132;28;20045;-57
2022/06/07 08:47:02;;;;;;;8.63;5.72;;;;;;;;;;4994640;28;20128;-58
2022/06/07 08:49:32;;;;;;;7.47;5.35;;;;;;;;;;5017112;28;20053;-56
2022/06/07 08:52:13;;;;;;;7.28;4.90;;;;;;;;;;4997099;28;20046;-58
2022/06/07 08:54:40;;;;;;;8.63;5.18;;;;;;;;;;4996776;28;20054;-55
2022/06/07 08:57:16;;;;;;;7.78;5.38;;;;;;;;;;4999582;28;20121;-58
2022/06/07 08:59:46;;;;;;;8.68;6.35;;;;;;;;;;4999855;28;20088;-60
2022/06/07 09:02:13;;;;;;;11.02;6.35;;;;;;;;;;4999331;28;20041;-57
2022/06/07 09:04:40;;;;;;;8.75;6.22;;;;;;;;;;4999143;28;20041;-58
2022/06/07 09:07:13;;;;;;;11.90;7.13;;;;;;;;;;4998499;28;20049;-57
2022/06/07 09:12:30;;;;;;;9.80;6.50;;;;;;;;;;4997425;28;20891;-58
2022/06/07 09:15:17;;;;;;;10.15;7.00;;;;;;;;;;4998756;28;20057;-61
2022/06/07 09:17:48;;;;;;;9.35;6.72;;;;;;;;;;4997283;28;21961;-59
2022/06/07 09:20:17;;;;;;;11.10;7.47;;;;;;;;;;4996265;28;20065;-58
2022/06/07 09:22:58;;;;;;;12.38;8.10;;;;;;;;;;4998089;28;20077;-59
2022/06/07 09:25:29;;;;;;;14.00;8.32;;;;;;;;;;4997268;28;20405;-58
2022/06/07 09:27:57;;;;;;;11.20;7.50;;;;;;;;;;4997210;28;20060;-58
2022/06/07 09:30:26;;;;;;;12.13;8.60;;;;;;;;;;4998231;28;20915;-57
2022/06/07 09:32:53;;;;;;;12.60;7.80;;;;;;;;;;5001680;28;20057;-59
2022/06/07 09:35:22;;;;;;;10.73;7.32;;;;;;;;;;5000776;28;20401;-59
2022/06/07 09:38:01;;;;;;;12.55;8.23;;;;;;;;;;4997820;28;20050;-58
2022/06/07 09:40:32;;;;;;;11.48;7.80;;;;;;;;;;5000156;28;20081;-58
2022/06/07 09:42:59;;;;;;;14.13;8.23;;;;;;;;;;5000872;28;20100;-60
2022/06/07 09:45:28;;;;;;;9.98;6.32;;;;;;;;;;5001253;28;20038;-57
2022/06/07 09:47:55;;;;;;;12.93;8.32;;;;;;;;;;5000755;28;20054;-59
2022/06/07 09:50:22;;;;;;;14.00;7.88;;;;;;;;;;5000365;28;20397;-58
2022/06/07 09:52:51;;;;;;;11.50;7.47;;;;;;;;;;5001673;28;20046;-60
2022/06/07 09:55:27;;;;;;;12.93;8.65;;;;;;;;;;4999094;28;20037;-58
2022/06/07 09:58:22;;;;;;;9.38;5.50;;;;;;;;;;4999747;28;20113;-59
2022/06/07 10:00:51;;;;;;;11.27;7.47;;;;;;;;;;4999685;28;20040;-60
2022/06/07 10:03:50;;;;;;;11.65;8.43;;;;;;;;;;5000859;28;20042;-58
2022/06/07 10:06:27;;;;;;;11.75;8.10;;;;;;;;;;4987038;28;20570;-61
2022/06/07 10:09:03;;;;;;;13.70;9.15;;;;;;;;;;4998763;28;20108;-59
2022/06/07 10:11:41;;;;;;;12.27;8.68;;;;;;;;;;4999942;28;20049;-58
2022/06/07 10:14:08;;;;;;;13.63;9.27;;;;;;;;;;5000638;28;20041;-59
2022/06/07 10:16:54;;;;;;;12.95;9.05;;;;;;;;;;4999887;28;20098;-59
2022/06/07 10:19:24;;;;;;;13.68;8.40;;;;;;;;;;4999491;28;20049;-58
2022/06/07 10:22:09;;;;;;;11.15;7.93;;;;;;;;;;5000180;28;20030;-59
2022/06/07 10:24:36;;;;;;;10.45;6.70;;;;;;;;;;4998451;28;20184;-59
2022/06/07 10:27:16;;;;;;;9.52;6.60;;;;;;;;;;5000666;28;20061;-60
2022/06/07 10:29:46;;;;;;;9.15;6.03;;;;;;;;;;5000563;28;20518;-56
2022/06/07 10:32:16;;;;;;;9.02;6.00;;;;;;;;;;5001846;28;20060;-59
2022/06/07 10:34:45;;;;;;;9.82;6.25;;;;;;;;;;5031810;28;20046;-58
2022/06/07 10:37:17;;;;;;;8.93;5.75;;;;;;;;;;4999237;28;20098;-57
2022/06/07 10:40:02;;;;;;;8.55;5.63;;;;;;;;;;4999708;28;20518;-57
2022/06/07 10:42:35;;;;;;;8.02;5.30;;;;;;;;;;4998244;28;20607;-55
2022/06/07 10:45:10;;;;;;;7.45;4.18;;;;;;;;;;4999414;28;20053;-56
2022/06/07 10:47:42;;;;;;;7.35;4.68;;;;;;;;;;4997406;28;20064;-58
2022/06/07 10:50:18;;;;;;;5.70;3.67;;;;;;;;;;4999767;28;20046;-57
2022/06/07 10:52:49;;;;;;;8.80;4.57;;;;;;;;;;4998319;28;20173;-57
2022/06/07 10:55:19;;;;;;;5.75;2.80;;;;;;;;;;4999615;28;20042;-58
2022/06/07 10:57:45;;;;;;;6.82;4.40;;;;;;;;;;4999089;28;20271;-58
2022/06/07 11:00:35;;;;;;;6.75;4.72;;;;;;;;;;5000071;28;20042;-57
2022/06/07 11:03:02;;;;;;;7.07;3.42;;;;;;;;;;4998033;28;20397;-58
2022/06/07 11:11:09;;;;;;;6.88;4.60;;;;;;;;;;5000656;28;20049;-59
2022/06/07 11:13:46;;;;;;;7.65;4.80;;;;;;;;;;4999727;28;20065;-58
2022/06/07 11:16:27;;;;;;;8.27;5.40;;;;;;;;;;5000904;28;20042;-59
2022/06/07 11:18:54;;;;;;;8.95;6.20;;;;;;;;;;4999295;28;20050;-59
2022/06/07 11:21:31;;;;;;;11.68;7.80;;;;;;;;;;4999828;28;20058;-59
2022/06/07 11:23:57;;;;;;;10.13;5.88;;;;;;;;;;4999519;28;20045;-59
2022/06/07 11:26:24;;;;;;;11.85;7.35;;;;;;;;;;4998312;28;20546;-57
2022/06/07 11:28:53;;;;;;;9.85;7.22;;;;;;;;;;4999764;28;20536;-55
2022/06/07 11:31:23;;;;;;;9.48;6.60;;;;;;;;;;4998670;28;20064;-58
2022/06/07 11:33:53;;;;;;;10.35;6.40;;;;;;;;;;4998721;28;20514;-57
2022/06/07 11:36:25;;;;;;;9.20;5.53;;;;;;;;;;4999428;28;20140;-57
2022/06/07 11:38:56;;;;;;;6.63;4.22;;;;;;;;;;4998352;28;20044;-57
2022/06/07 11:41:37;;;;;;;7.55;4.60;;;;;;;;;;4998200;28;20032;-57
2022/06/07 11:44:06;;;;;;;5.57;3.70;;;;;;;;;;4999836;28;20038;-56
2022/06/07 11:46:35;;;;;;;6.05;3.25;;;;;;;;;;4998186;28;20580;-59
2022/06/07 11:49:17;;;;;;;5.57;2.80;;;;;;;;;;4998761;28;20045;-57
2022/06/07 11:51:52;;;;;;;4.68;2.67;;;;;;;;;;4997538;28;20089;-58
2022/06/07 11:54:23;;;;;;;4.25;2.63;;;;;;;;;;4998513;28;20048;-57
2022/06/07 11:56:51;;;;;;;4.78;2.72;;;;;;;;;;4997708;28;20063;-57
2022/06/07 11:59:18;;;;;;;4.65;2.80;;;;;;;;;;4999098;28;20057;-56
2022/06/07 12:01:49;;;;;;;5.28;2.92;;;;;;;;;;4999137;28;20026;-55
2022/06/07 12:04:34;;;;;;;6.10;2.42;;;;;;;;;;5000487;28;20042;-58
2022/06/07 12:07:21;;;;;;;4.38;2.10;;;;;;;;;;4997765;28;20060;-59
2022/06/07 12:09:56;;;;;;;4.60;2.80;;;;;;;;;;4999043;28;20064;-58
2022/06/07 12:12:33;;;;;;;7.50;2.75;;;;;;;;;;4998166;28;20406;-59
2022/06/07 12:15:03;;;;;;;5.47;3.33;;;;;;;;;;4999037;28;20053;-58
2022/06/07 12:17:30;;;;;;;5.10;3.17;;;;;;;;;;4997966;28;20041;-59
2022/06/07 12:19:58;;;;;;;5.10;3.20;;;;;;;;;;4998979;28;20141;-59
2022/06/07 12:22:26;;;;;;;4.75;3.05;;;;;;;;;;4997023;28;20487;-59
2022/06/07 12:24:59;;;;;;;7.68;4.60;;;;;;;;;;4999531;28;20038;-61
2022/06/07 12:27:31;;;;;;;6.18;3.95;;;;;;;;;;4997963;28;20046;-59
2022/06/07 12:30:03;;;;;;;6.55;4.30;;;;;;;;;;4999543;28;20601;-59
2022/06/07 12:32:34;;;;;;;7.38;4.72;;;;;;;;;;5014220;28;20655;-60
2022/06/07 12:35:19;;;;;;;7.22;4.18;;;;;;;;;;4997111;28;20046;-55
2022/06/07 12:37:50;;;;;;;6.25;4.18;;;;;;;;;;4997788;28;20053;-59
2022/06/07 12:40:23;;;;;;;7.68;4.32;;;;;;;;;;4997312;28;20037;-59
2022/06/07 12:42:50;;;;;;;5.90;3.95;;;;;;;;;;4997674;28;20065;-58
2022/06/07 12:45:20;;;;;;;9.25;5.05;;;;;;;;;;4996615;28;20050;-60
2022/06/07 12:47:46;;;;;;;7.47;5.10;;;;;;;;;;4997011;28;20046;-59
2022/06/07 12:50:24;;;;;;;8.43;5.45;;;;;;;;;;4994755;28;20042;-59
2022/06/07 12:52:54;;;;;;;6.50;4.72;;;;;;;;;;5027890;28;20057;-59
2022/06/07 12:55:26;;;;;;;8.38;5.70;;;;;;;;;;5027262;28;20038;-60
2022/06/07 12:57:56;;;;;;;7.75;5.45;;;;;;;;;;4996468;28;20513;-60
2022/06/07 13:00:43;;;;;;;8.82;5.53;;;;;;;;;;4996475;28;20477;-58
2022/06/07 13:03:31;;;;;;;8.00;5.07;;;;;;;;;;4998099;28;20080;-59
2022/06/07 13:06:01;;;;;;;6.65;4.97;;;;;;;;;;4994024;28;20095;-59
2022/06/07 13:08:32;;;;;;;8.75;4.20;;;;;;;;;;4995215;28;20042;-59
2022/06/07 13:10:59;;;;;;;8.98;4.72;;;;;;;;;;4997132;28;20048;-60
2022/06/07 13:13:37;;;;;;;7.30;4.57;;;;;;;;;;4995336;28;20066;-58
2022/06/07 13:16:15;;;;;;;6.25;4.22;;;;;;;;;;4997340;28;20048;-62
2022/06/07 13:18:44;;;;;;;7.10;3.90;;;;;;;;;;4996066;28;20132;-63
2022/06/07 13:21:17;;;;;;;7.00;4.28;;;;;;;;;;5011927;28;20057;-63
2022/06/07 13:23:44;;;;;;;5.78;3.65;;;;;;;;;;4997319;28;20521;-62
2022/06/07 13:26:17;;;;;;;5.03;3.30;;;;;;;;;;4996766;28;20137;-62
2022/06/07 13:28:44;;;;;;;5.27;2.97;;;;;;;;;;4997543;28;20502;-62
2022/06/07 13:31:30;;;;;;;6.80;3.22;;;;;;;;;;4996928;28;20049;-63
2022/06/07 13:34:01;;;;;;;5.07;2.95;;;;;;;;;;4995427;28;20046;-64
2022/06/07 13:36:49;;;;;;;5.20;2.90;;;;;;;;;;4995801;28;20046;-63
2022/06/07 13:39:21;;;;;;;5.47;2.67;;;;;;;;;;4997922;28;20141;-61
2022/06/07 13:41:51;;;;;;;4.32;2.22;;;;;;;;;;4995603;28;20046;-63
2022/06/07 13:44:28;;;;;;;8.00;2.55;;;;;;;;;;4998281;28;20080;-59
2022/06/07 13:47:01;;;;;;;4.38;2.50;;;;;;;;;;4995237;28;20062;-63
2022/06/07 13:55:18;;;;;;;4.55;2.20;;;;;;;;;;4993773;28;20073;-58
2022/06/07 13:57:45;;;;;;;5.53;2.47;;;;;;;;;;4990563;28;20172;-60
2022/06/07 14:00:14;;;;;;;5.03;2.58;;;;;;;;;;4994997;28;20046;-59
2022/06/07 14:02:42;;;;;;;6.43;2.47;;;;;;;;;;4995702;28;20075;-59
2022/06/07 14:05:15;;;;;;;5.15;2.47;;;;;;;;;;5009873;28;20050;-58
2022/06/07 14:07:41;;;;;;;4.63;2.45;;;;;;;;;;4994799;28;21525;-58
2022/06/07 14:10:11;;;;;;;4.13;2.30;;;;;;;;;;4995908;28;20161;-57
2022/06/07 14:12:38;;;;;;;4.55;2.20;;;;;;;;;;4995116;28;20053;-60
2022/06/07 14:15:05;;;;;;;4.60;2.55;;;;;;;;;;4995943;28;20399;-59
2022/06/07 14:17:32;;;;;;;3.65;1.65;;;;;;;;;;4996307;28;20038;-58
2022/06/07 14:19:59;;;;;;;5.70;2.58;;;;;;;;;;5000334;28;20037;-59
2022/06/07 14:22:27;;;;;;;4.35;2.38;;;;;;;;;;4998706;28;20046;-60
2022/06/07 14:24:54;;;;;;;3.90;2.13;;;;;;;;;;5000699;28;20044;-57
2022/06/07 14:27:22;;;;;;;4.25;2.35;;;;;;;;;;4998633;28;20053;-57
2022/06/07 14:29:49;;;;;;;3.88;1.98;;;;;;;;;;4999463;28;20045;-58
2022/06/07 14:32:18;;;;;;;3.70;2.00;;;;;;;;;;4999829;28;20056;-60
2022/06/07 14:34:45;;;;;;;3.83;2.03;;;;;;;;;;4998192;28;20044;-59
2022/06/07 14:37:16;;;;;;;6.10;2.13;;;;;;;;;;4999894;28;20602;-59
2022/06/07 14:39:43;;;;;;;4.20;2.17;;;;;;;;;;5030487;28;20042;-59
2022/06/07 14:42:10;;;;;;;6.97;2.20;;;;;;;;;;5000702;28;20033;-59
2022/06/07 14:44:37;;;;;;;3.70;1.90;;;;;;;;;;4998365;28;20116;-59
2022/06/07 14:47:05;;;;;;;3.80;2.15;;;;;;;;;;4999390;28;20046;-60
2022/06/07 14:49:36;;;;;;;4.43;2.25;;;;;;;;;;4998808;28;20046;-58
2022/06/07 14:52:04;;;;;;;4.30;2.10;;;;;;;;;;4998790;28;20164;-59
2022/06/07 14:54:32;;;;;;;4.65;1.70;;;;;;;;;;4999815;28;20038;-58
2022/06/07 14:57:00;;;;;;;4.20;1.90;;;;;;;;;;4999625;28;20044;-58
2022/06/07 14:59:27;;;;;;;4.70;2.00;;;;;;;;;;4998574;28;20346;-57
2022/06/07 15:02:01;;;;;;;4.28;2.13;;;;;;;;;;4999656;28;20697;-59
2022/06/07 15:04:41;;;;;;;3.92;1.80;;;;;;;;;;4999664;28;20050;-59
2022/06/07 15:07:18;;;;;;;3.63;1.67;;;;;;;;;;5000538;28;20137;-59
2022/06/07 15:09:45;;;;;;;3.65;1.90;;;;;;;;;;5000398;28;20047;-59
2022/06/07 15:12:14;;;;;;;4.57;2.00;;;;;;;;;;5000004;28;20045;-58
2022/06/07 15:14:41;;;;;;;4.45;1.92;;;;;;;;;;4999208;28;20034;-60
2022/06/07 15:17:13;;;;;;;4.25;1.58;;;;;;;;;;5000318;28;20034;-60
2022/06/07 15:19:39;;;;;;;4.97;1.90;;;;;;;;;;4999310;28;20104;-59
2022/06/07 15:22:10;;;;;;;3.70;1.60;;;;;;;;;;5001143;28;20052;-58
2022/06/07 15:24:36;;;;;;;4.00;1.85;;;;;;;;;;4999526;28;20483;-58
2022/06/07 15:27:04;;;;;;;4.95;2.05;;;;;;;;;;5001800;28;20076;-59
2022/06/07 15:32:18;;;;;;;3.30;1.77;;;;;;;;;;5002211;28;20100;-57